YYI weather

CLOSED Rivers Airport
Manitoba, Canada

Public forecast

Using degrees Celsius for public forecast. Weather courtesy of forecast.io.

Closest aviation weather report (METAR) to Rivers Airport

Closest report is Brandon Municipal Airport, 15.2 nm (28.2 km) ESE. Retrieved 2019/10/21 05:00 UTC (60 minutes ago):

CYBR 210500Z 35011KT 15SM BKN110 04/M01 A2988 RMK AC5 SLP136

Closest aviation forecast (TAF) to Rivers Airport

Closest forecast is Brandon Municipal Airport, 15.2 nm (28.2 km) ESE. Retrieved 2019-10-21 00:42 UTC (5 hours ago):

TAF CYBR 202338Z 2100/2112 31005KT P6SM SCT120 BKN250 BECMG 2101/2103 36008KT RMK NXT FCST BY 210600Z